Time;durP1;ratioP1;P1;durP2;ratioP2;P2;SDS_P1;SDS_P2;PMS_P1;PMS_P2;Temp;Humidity;BMP_temperature;BMP_pressure;BME280_temperature;BME280_humidity;BME280_pressure;Samples;Min_cycle;Max_cycle;Signal;HPM_P1;HPM_P2
2023/08/17 00:02:00;;;;;;;4.30;3.55;;;;;;;19.71;94.34;95807.47;5051467;28;20974;-78
2023/08/17 00:04:25;;;;;;;5.40;3.40;;;;;;;19.85;93.10;95803.03;5050453;28;20193;-79
2023/08/17 00:06:50;;;;;;;3.97;3.40;;;;;;;19.83;92.97;95812.97;5047902;28;20229;-79
2023/08/17 00:09:16;;;;;;;4.00;3.58;;;;;;;19.86;93.11;95806.47;5053147;28;20193;-78
2023/08/17 00:11:41;;;;;;;3.72;3.22;;;;;;;19.85;92.79;95807.50;5058618;28;20190;-79
2023/08/17 00:14:06;;;;;;;4.75;4.18;;;;;;;19.80;92.42;95813.38;5058510;28;20194;-79
2023/08/17 00:16:32;;;;;;;4.40;3.90;;;;;;;19.78;92.55;95810.09;5056872;28;20265;-78
2023/08/17 00:18:57;;;;;;;4.05;3.65;;;;;;;19.73;92.81;95809.91;5046459;28;20214;-79
2023/08/17 00:21:23;;;;;;;4.40;3.90;;;;;;;19.68;93.67;95812.31;5049076;28;20198;-78
2023/08/17 00:23:49;;;;;;;5.88;4.53;;;;;;;19.69;93.46;95808.66;5030330;28;20541;-77
2023/08/17 00:26:14;;;;;;;4.63;3.83;;;;;;;19.75;93.10;95803.41;5045127;28;20189;-79
2023/08/17 00:28:40;;;;;;;4.93;3.88;;;;;;;19.76;93.23;95798.94;5044130;28;20174;-79
2023/08/17 00:31:05;;;;;;;5.15;4.50;;;;;;;19.73;92.74;95799.38;5037854;28;20229;-78
2023/08/17 00:33:30;;;;;;;4.90;4.13;;;;;;;19.69;93.30;95803.38;5057116;28;20250;-79
2023/08/17 00:35:55;;;;;;;4.93;4.32;;;;;;;19.63;93.33;95799.75;5058485;28;20230;-78
2023/08/17 00:38:21;;;;;;;4.82;4.32;;;;;;;19.61;93.36;95795.66;5062389;28;20642;-80
2023/08/17 00:40:46;;;;;;;6.15;4.72;;;;;;;19.55;94.00;95802.50;5063973;28;20181;-79
2023/08/17 00:43:12;;;;;;;5.68;4.47;;;;;;;19.46;94.76;95790.53;5034594;28;20568;-78
2023/08/17 00:45:37;;;;;;;4.43;4.03;;;;;;;19.47;95.06;95790.31;5055829;28;20185;-78
2023/08/17 00:48:05;;;;;;;4.95;4.43;;;;;;;19.44;95.73;95782.81;5058237;28;20205;-78
2023/08/17 00:50:30;;;;;;;5.30;4.80;;;;;;;19.43;95.43;95785.63;5047463;28;20181;-79
2023/08/17 00:52:56;;;;;;;5.57;5.07;;;;;;;19.48;95.37;95784.03;5047363;28;20232;-78
2023/08/17 00:55:21;;;;;;;5.07;4.65;;;;;;;19.44;95.18;95785.47;5056883;28;20189;-78
2023/08/17 00:57:46;;;;;;;4.90;4.50;;;;;;;19.48;94.66;95786.69;5046012;28;20214;-78
2023/08/17 01:00:13;;;;;;;6.72;4.72;;;;;;;19.42;95.19;95786.63;5062489;28;20193;-78
2023/08/17 01:02:40;;;;;;;4.70;4.20;;;;;;;19.46;94.12;95788.69;5045183;28;20223;-80
2023/08/17 01:05:06;;;;;;;5.35;4.85;;;;;;;19.35;94.55;95781.38;5041618;28;20240;-78
2023/08/17 01:07:31;;;;;;;4.68;4.28;;;;;;;19.30;95.26;95778.50;5033382;28;20260;-77
2023/08/17 01:09:57;;;;;;;5.45;4.25;;;;;;;19.39;93.99;95777.31;5051827;28;20186;-79
2023/08/17 01:12:29;;;;;;;5.25;4.63;;;;;;;19.36;94.37;95776.91;5037833;28;20202;-79
2023/08/17 01:15:05;;;;;;;4.60;4.20;;;;;;;19.33;94.31;95780.72;5057205;28;20252;-79
2023/08/17 01:17:57;;;;;;;5.07;4.57;;;;;;;19.36;94.42;95774.28;5042712;28;20682;-79
2023/08/17 01:20:23;;;;;;;6.93;5.10;;;;;;;19.27;94.47;95775.47;5032418;28;20206;-79
2023/08/17 01:22:50;;;;;;;8.27;4.78;;;;;;;19.27;94.13;95776.28;5046524;28;20238;-79
2023/08/17 01:25:15;;;;;;;5.13;4.65;;;;;;;19.26;93.53;95774.66;5042949;28;20214;-78
2023/08/17 01:27:43;;;;;;;5.82;4.95;;;;;;;19.22;94.78;95776.03;5036375;28;20259;-79
2023/08/17 01:30:11;;;;;;;5.07;4.10;;;;;;;19.24;94.18;95777.44;5058195;28;20198;-80
2023/08/17 01:32:42;;;;;;;5.72;4.80;;;;;;;19.09;94.44;95782.06;5053975;28;20185;-80
2023/08/17 01:35:14;;;;;;;4.82;4.43;;;;;;;19.09;94.60;95781.25;5049340;28;20217;-77
2023/08/17 01:37:41;;;;;;;5.07;4.57;;;;;;;19.04;95.04;95783.63;5044828;28;20210;-79
2023/08/17 01:40:07;;;;;;;4.50;4.10;;;;;;;18.95;96.07;95781.16;5044049;28;20186;-78
2023/08/17 01:42:32;;;;;;;5.47;4.47;;;;;;;19.03;95.35;95782.00;5064038;28;20198;-77
2023/08/17 01:44:58;;;;;;;5.88;5.28;;;;;;;19.00;95.10;95775.31;5043392;28;20189;-79
2023/08/17 01:47:24;;;;;;;6.05;4.20;;;;;;;18.99;95.80;95771.03;5050199;28;20620;-78
2023/08/17 01:49:50;;;;;;;4.97;4.57;;;;;;;18.92;95.99;95778.94;5057141;28;20211;-78
2023/08/17 01:52:15;;;;;;;5.10;4.30;;;;;;;18.99;94.62;95778.13;5048775;28;20269;-79
2023/08/17 01:54:40;;;;;;;6.30;4.20;;;;;;;19.00;94.92;95777.16;5045416;28;20182;-79
2023/08/17 01:57:05;;;;;;;6.47;4.93;;;;;;;19.02;94.79;95777.75;5043283;28;20218;-77
2023/08/17 01:59:31;;;;;;;4.82;4.43;;;;;;;19.02;94.63;95775.13;5045404;28;20210;-79
2023/08/17 02:01:56;;;;;;;4.70;4.20;;;;;;;18.84;97.06;95773.81;5044633;28;20183;-78
2023/08/17 02:04:22;;;;;;;6.88;4.53;;;;;;;18.93;95.86;95769.22;5031383;28;20245;-79
2023/08/17 02:06:47;;;;;;;5.20;4.00;;;;;;;18.94;96.90;95774.28;5051169;28;20205;-79
2023/08/17 02:09:12;;;;;;;8.32;4.20;;;;;;;18.90;96.72;95767.75;5055171;28;20181;-78
2023/08/17 02:11:37;;;;;;;5.00;4.47;;;;;;;18.93;96.87;95762.13;5044708;28;20568;-79
2023/08/17 02:14:03;;;;;;;6.97;4.78;;;;;;;18.98;96.55;95768.63;5056077;28;20178;-78
2023/08/17 02:16:28;;;;;;;7.13;5.50;;;;;;;19.08;96.71;95761.16;5044128;28;20217;-78
2023/08/17 02:18:53;;;;;;;6.82;6.18;;;;;;;19.22;96.97;95752.34;5042972;28;20211;-79
2023/08/17 02:21:19;;;;;;;8.38;6.70;;;;;;;19.29;97.29;95755.00;5056490;28;20188;-79
2023/08/17 02:23:44;;;;;;;9.68;8.00;;;;;;;19.35;98.10;95760.31;5044217;28;20185;-78
2023/08/17 02:26:10;;;;;;;10.32;9.25;;;;;;;19.46;98.10;95753.66;5052335;28;20205;-78
2023/08/17 02:28:35;;;;;;;11.30;10.00;;;;;;;19.53;98.08;95744.78;5051212;28;20284;-77
2023/08/17 02:31:00;;;;;;;14.32;10.75;;;;;;;19.66;98.11;95745.84;5068339;28;20204;-78
2023/08/17 02:33:26;;;;;;;13.00;11.60;;;;;;;19.71;98.76;95748.69;5044035;28;20267;-77
2023/08/17 02:35:51;;;;;;;12.80;10.73;;;;;;;19.77;98.04;95737.34;5040651;28;20254;-78
2023/08/17 02:38:17;;;;;;;16.27;12.10;;;;;;;19.81;98.33;95738.56;5056282;28;20293;-80
2023/08/17 02:40:42;;;;;;;17.88;13.07;;;;;;;19.85;98.69;95744.25;5046702;28;20190;-77
2023/08/17 02:43:08;;;;;;;23.52;15.13;;;;;;;19.86;99.14;95730.88;5046601;28;20198;-78
2023/08/17 02:45:33;;;;;;;22.75;14.50;;;;;;;19.92;98.75;95724.81;5048286;28;20236;-78
2023/08/17 02:47:59;;;;;;;23.42;15.52;;;;;;;19.90;99.82;95729.47;5048893;28;20288;-77
2023/08/17 02:50:24;;;;;;;20.08;15.50;;;;;;;19.96;100.00;95730.47;5065802;28;20240;-79
2023/08/17 02:52:50;;;;;;;21.52;15.18;;;;;;;19.87;100.00;95731.66;5040405;28;20190;-78
2023/08/17 02:55:15;;;;;;;19.60;13.32;;;;;;;19.89;100.00;95725.22;5057741;28;20964;-77
2023/08/17 02:57:40;;;;;;;22.90;13.98;;;;;;;19.96;100.00;95728.63;5042445;28;20237;-78
2023/08/17 03:00:06;;;;;;;27.13;14.27;;;;;;;19.85;100.00;95720.53;5060311;28;20213;-78
2023/08/17 03:02:32;;;;;;;23.90;14.23;;;;;;;19.90;100.00;95718.13;5062347;28;20228;-77
2023/08/17 03:04:57;;;;;;;30.35;13.98;;;;;;;19.75;100.00;95718.28;5064326;28;20197;-78
2023/08/17 03:07:22;;;;;;;15.70;13.10;;;;;;;19.93;100.00;95704.53;5050479;28;20209;-79
2023/08/17 03:09:47;;;;;;;19.35;13.35;;;;;;;19.91;100.00;95706.56;5050525;28;20193;-78
2023/08/17 03:12:13;;;;;;;34.42;13.60;;;;;;;19.80;100.00;95707.97;5061971;28;20190;-78
2023/08/17 03:14:38;;;;;;;33.42;13.88;;;;;;;19.75;100.00;95707.75;5057045;28;20198;-78
2023/08/17 03:17:03;;;;;;;15.63;12.48;;;;;;;19.88;100.00;95691.97;5056687;28;20214;-78
2023/08/17 03:19:29;;;;;;;21.50;12.90;;;;;;;19.82;100.00;95698.03;5060381;28;20214;-79
2023/08/17 03:21:54;;;;;;;19.83;12.40;;;;;;;19.90;100.00;95695.22;5045746;28;20683;-78
2023/08/17 03:24:19;;;;;;;23.73;12.68;;;;;;;19.79;100.00;95699.25;5029394;28;20186;-78
2023/08/17 03:26:45;;;;;;;22.17;12.48;;;;;;;19.81;100.00;95696.41;5051087;28;20210;-78
2023/08/17 03:29:10;;;;;;;25.00;11.95;;;;;;;19.82;100.00;95697.22;5036114;28;20284;-78
2023/08/17 03:31:35;;;;;;;16.30;11.20;;;;;;;19.81;100.00;95699.06;5059541;28;20182;-77
2023/08/17 03:34:01;;;;;;;14.57;10.85;;;;;;;19.81;100.00;95696.41;5043705;28;20210;-79
2023/08/17 03:36:26;;;;;;;18.92;11.98;;;;;;;19.77;100.00;95701.25;5056697;28;20197;-77
2023/08/17 03:38:51;;;;;;;23.20;12.07;;;;;;;19.66;100.00;95690.50;5045006;28;20214;-77
2023/08/17 03:41:17;;;;;;;15.63;11.45;;;;;;;19.74;100.00;95692.97;5063065;28;20217;-79
2023/08/17 03:43:42;;;;;;;18.00;10.45;;;;;;;19.45;100.00;95694.91;5052249;28;20194;-77
2023/08/17 03:46:07;;;;;;;22.08;9.90;;;;;;;19.52;100.00;95687.84;5049112;28;20214;-77
2023/08/17 03:48:33;;;;;;;13.48;9.80;;;;;;;19.48;100.00;95685.78;5047092;28;20259;-78
2023/08/17 03:50:58;;;;;;;14.82;9.95;;;;;;;19.55;100.00;95685.81;5044567;28;20214;-77
2023/08/17 03:53:23;;;;;;;14.20;10.20;;;;;;;19.48;100.00;95683.97;5040931;28;20178;-79
2023/08/17 03:55:49;;;;;;;27.77;11.57;;;;;;;19.45;100.00;95692.28;5058711;28;20276;-77
2023/08/17 03:58:15;;;;;;;12.00;10.77;;;;;;;19.45;100.00;95697.53;5059924;28;20214;-78
2023/08/17 04:00:41;;;;;;;29.88;11.10;;;;;;;19.42;100.00;95692.66;5046380;28;20194;-78
2023/08/17 04:03:06;;;;;;;13.85;10.40;;;;;;;19.43;100.00;95696.91;5065414;28;20193;-78
2023/08/17 04:05:32;;;;;;;11.10;9.82;;;;;;;19.39;100.00;95693.06;5050939;28;20671;-77
2023/08/17 04:08:01;;;;;;;14.60;9.50;;;;;;;19.42;100.00;95695.28;5053939;28;20194;-78
2023/08/17 04:10:27;;;;;;;10.10;8.52;;;;;;;19.46;100.00;95698.34;5054981;28;20199;-77
2023/08/17 04:12:52;;;;;;;16.65;9.85;;;;;;;19.24;100.00;95705.56;5060583;28;20182;-77
2023/08/17 04:15:17;;;;;;;13.80;9.07;;;;;;;19.24;100.00;95701.09;5059170;28;20185;-78
2023/08/17 04:17:43;;;;;;;9.38;8.43;;;;;;;19.21;100.00;95700.69;5040481;28;20209;-77
2023/08/17 04:20:09;;;;;;;11.40;8.50;;;;;;;19.22;100.00;95707.59;5050069;28;20189;-78
2023/08/17 04:22:34;;;;;;;8.27;7.57;;;;;;;19.30;100.00;95712.69;5040901;28;20195;-76
2023/08/17 04:24:59;;;;;;;7.90;7.13;;;;;;;19.32;100.00;95710.66;5024562;28;20201;-77
2023/08/17 04:27:25;;;;;;;6.47;5.93;;;;;;;19.37;100.00;95710.88;5051251;28;20201;-82
2023/08/17 04:29:50;;;;;;;8.80;8.00;;;;;;;19.28;100.00;95714.69;5030920;28;20290;-82
2023/08/17 04:32:16;;;;;;;7.88;7.15;;;;;;;19.37;100.00;95721.41;5032062;28;20655;-83
2023/08/17 04:34:43;;;;;;;8.38;6.90;;;;;;;19.41;99.62;95724.44;5034726;28;20192;-83
2023/08/17 04:37:08;;;;;;;8.70;6.95;;;;;;;19.39;99.14;95729.94;5031266;28;20216;-83
2023/08/17 04:39:33;;;;;;;6.72;6.13;;;;;;;19.48;98.35;95723.47;5043791;28;20202;-83
2023/08/17 04:41:58;;;;;;;5.95;5.45;;;;;;;19.45;97.51;95726.50;5045368;28;20201;-82
2023/08/17 04:44:24;;;;;;;7.65;5.80;;;;;;;19.36;97.88;95725.06;5045075;28;20715;-82
2023/08/17 04:46:49;;;;;;;6.28;5.78;;;;;;;19.37;97.96;95731.94;5028691;28;20878;-83
2023/08/17 04:49:14;;;;;;;7.60;5.55;;;;;;;19.38;98.43;95724.84;5038375;28;20273;-84
2023/08/17 04:51:40;;;;;;;5.28;4.78;;;;;;;19.52;97.55;95729.13;5021271;28;20217;-80
2023/08/17 04:54:05;;;;;;;7.10;5.18;;;;;;;19.50;96.69;95731.16;5038930;28;20190;-81
2023/08/17 04:56:30;;;;;;;5.28;4.60;;;;;;;19.60;96.72;95726.34;5034023;28;20233;-81
2023/08/17 04:58:56;;;;;;;9.95;4.80;;;;;;;19.46;96.79;95730.75;5040824;28;20751;-81
2023/08/17 05:01:21;;;;;;;8.73;5.05;;;;;;;19.61;96.07;95727.16;5043380;28;20183;-82
2023/08/17 05:03:46;;;;;;;4.63;4.25;;;;;;;19.96;93.74;95725.19;5046078;28;20197;-82
2023/08/17 05:06:12;;;;;;;6.35;4.05;;;;;;;19.89;93.32;95730.47;5035528;28;20189;-81
2023/08/17 05:08:37;;;;;;;4.75;4.25;;;;;;;20.02;93.47;95724.41;5051287;28;20214;-79
2023/08/17 05:11:02;;;;;;;4.75;3.88;;;;;;;20.16;91.66;95722.59;5053599;28;20186;-81
2023/08/17 05:13:28;;;;;;;4.68;4.28;;;;;;;20.12;91.32;95724.81;5051659;28;20188;-81
2023/08/17 05:15:53;;;;;;;4.50;4.07;;;;;;;20.50;90.04;95727.69;5048394;28;20552;-82
2023/08/17 05:18:18;;;;;;;6.43;4.30;;;;;;;20.45;89.41;95739.84;5044589;28;20645;-81
2023/08/17 05:20:43;;;;;;;4.20;3.80;;;;;;;20.55;88.81;95741.06;5052786;28;20541;-83
2023/08/17 05:23:09;;;;;;;4.07;3.80;;;;;;;20.70;86.71;95740.03;5032741;28;20217;-82
2023/08/17 05:25:34;;;;;;;4.57;4.18;;;;;;;20.69;88.43;95731.31;5031771;28;20182;-82
2023/08/17 05:28:00;;;;;;;4.55;4.15;;;;;;;20.77;88.38;95727.63;5034783;28;20327;-82
2023/08/17 05:30:25;;;;;;;4.28;3.88;;;;;;;20.91;87.08;95729.22;5031681;28;20301;-84
2023/08/17 05:32:50;;;;;;;3.97;3.67;;;;;;;21.14;85.60;95731.38;5032671;28;20190;-83
2023/08/17 05:35:16;;;;;;;3.97;3.60;;;;;;;21.01;86.12;95737.50;5036895;28;20185;-82
2023/08/17 05:37:41;;;;;;;4.20;3.90;;;;;;;20.89;87.31;95741.81;5033124;28;20210;-84
2023/08/17 05:40:08;;;;;;;4.00;3.70;;;;;;;21.02;85.93;95749.69;5034448;28;20205;-82
2023/08/17 05:42:34;;;;;;;3.40;3.10;;;;;;;21.01;86.85;95745.41;5028644;28;20566;-82
2023/08/17 05:44:59;;;;;;;3.58;3.28;;;;;;;20.98;87.13;95745.03;5046509;28;20177;-82
2023/08/17 05:47:24;;;;;;;4.00;3.47;;;;;;;20.97;nan;95746.88;5035221;28;20201;-82
2023/08/17 05:49:50;;;;;;;4.00;3.70;;;;;;;20.85;88.79;95746.69;5051826;28;20550;-82
2023/08/17 05:52:15;;;;;;;3.45;3.15;;;;;;;21.10;86.99;95748.66;5033329;28;20659;-82
2023/08/17 05:54:40;;;;;;;3.80;3.50;;;;;;;21.25;86.28;95756.31;5033276;28;20278;-82
2023/08/17 05:57:06;;;;;;;4.45;4.05;;;;;;;20.97;87.43;95754.78;5033058;28;20693;-82
2023/08/17 05:59:31;;;;;;;4.50;4.15;;;;;;;21.02;87.49;95759.44;5049108;28;20208;-82
2023/08/17 06:01:56;;;;;;;4.28;3.92;;;;;;;21.23;87.31;95761.00;5040754;28;20557;-82
2023/08/17 06:04:22;;;;;;;4.40;4.03;;;;;;;21.19;87.39;95752.69;5037446;28;20201;-81
2023/08/17 06:06:47;;;;;;;4.43;4.07;;;;;;;21.24;87.91;95752.88;5033801;28;20207;-82
2023/08/17 06:09:12;;;;;;;4.85;4.38;;;;;;;21.01;88.73;95761.25;5031953;28;20195;-82
2023/08/17 06:11:38;;;;;;;4.40;4.00;;;;;;;21.26;88.78;95758.75;5032747;28;20681;-82
2023/08/17 06:14:03;;;;;;;4.07;3.78;;;;;;;21.54;88.01;95761.09;5037353;28;20193;-82
2023/08/17 06:16:29;;;;;;;4.78;4.32;;;;;;;21.68;86.67;95757.38;5039345;28;20237;-82
2023/08/17 06:18:54;;;;;;;4.30;3.90;;;;;;;21.71;86.79;95754.31;5034168;28;20695;-81
2023/08/17 06:21:19;;;;;;;4.43;4.13;;;;;;;21.87;87.21;95760.13;5029090;28;20197;-81
2023/08/17 06:23:45;;;;;;;4.07;3.75;;;;;;;22.01;87.01;95761.66;5035675;28;20189;-82
2023/08/17 06:26:10;;;;;;;4.97;4.57;;;;;;;21.97;85.57;95753.34;5035450;28;20255;-81
2023/08/17 06:28:35;;;;;;;5.78;5.07;;;;;;;21.88;86.11;95751.16;5052448;28;20185;-81
2023/08/17 06:31:01;;;;;;;5.70;5.20;;;;;;;21.78;85.86;95749.00;5033494;28;20664;-81
2023/08/17 06:33:26;;;;;;;5.43;4.82;;;;;;;22.12;84.99;95753.06;5036322;28;20189;-81
2023/08/17 06:35:51;;;;;;;5.28;4.78;;;;;;;22.19;83.78;95753.03;5044180;28;20239;-82
2023/08/17 06:38:17;;;;;;;4.30;4.00;;;;;;;23.35;77.48;95755.00;5041985;28;20232;-82
2023/08/17 06:40:42;;;;;;;4.63;4.22;;;;;;;24.70;73.76;95751.84;5032126;28;20579;-82
2023/08/17 06:43:09;;;;;;;3.80;3.50;;;;;;;26.86;62.25;95753.81;5039010;28;20190;-82
2023/08/17 06:45:34;;;;;;;3.28;2.97;;;;;;;27.43;61.80;95759.69;5033846;28;20232;-83
2023/08/17 06:47:59;;;;;;;4.38;3.58;;;;;;;28.45;56.48;95753.59;5031140;28;20281;-82
2023/08/17 06:50:26;;;;;;;3.00;2.70;;;;;;;29.46;51.65;95765.97;5031139;28;20185;-81
2023/08/17 06:52:51;;;;;;;5.18;3.13;;;;;;;29.23;51.66;95763.72;5035730;28;20734;-82
2023/08/17 06:55:17;;;;;;;3.17;2.88;;;;;;;29.20;52.74;95769.59;5038073;28;20187;-82
2023/08/17 06:57:42;;;;;;;4.03;3.72;;;;;;;28.91;51.66;95782.53;5039820;28;20207;-82
2023/08/17 07:00:08;;;;;;;5.13;4.63;;;;;;;28.71;53.59;95777.81;5031710;28;20693;-82
2023/08/17 07:02:34;;;;;;;5.15;4.65;;;;;;;27.70;56.93;95781.09;5046698;28;20260;-82
2023/08/17 07:05:00;;;;;;;4.53;4.10;;;;;;;29.38;51.90;95777.19;5047709;28;20278;-82
2023/08/17 07:07:25;;;;;;;3.80;3.50;;;;;;;27.60;57.81;95778.28;5032384;28;20206;-81
2023/08/17 07:09:50;;;;;;;3.30;3.10;;;;;;;27.87;57.67;95773.81;5047190;28;20605;-82
2023/08/17 07:12:16;;;;;;;3.08;2.38;;;;;;;28.44;55.16;95767.97;5044120;28;20178;-82
2023/08/17 07:14:41;;;;;;;2.88;2.65;;;;;;;27.97;57.37;95775.78;5031220;28;20181;-83
2023/08/17 07:17:06;;;;;;;3.85;2.92;;;;;;;29.03;53.34;95769.78;5044132;28;20263;-83
2023/08/17 07:19:32;;;;;;;3.65;2.70;;;;;;;27.90;55.75;95772.50;5033129;28;20253;-82
2023/08/17 07:21:57;;;;;;;5.88;2.70;;;;;;;26.40;60.53;95766.44;5032473;28;20178;-82
2023/08/17 07:24:23;;;;;;;3.65;3.20;;;;;;;26.42;60.52;95767.81;5035363;28;20252;-82
2023/08/17 07:26:48;;;;;;;3.38;2.97;;;;;;;26.23;63.20;95764.53;5030966;28;20206;-83
2023/08/17 07:29:13;;;;;;;4.00;2.83;;;;;;;25.49;64.03;95768.19;5036745;28;20244;-82
2023/08/17 07:31:39;;;;;;;3.75;2.83;;;;;;;25.64;64.12;95760.50;5040075;28;20178;-83
2023/08/17 07:34:05;;;;;;;3.33;2.92;;;;;;;25.70;62.57;95760.38;5042246;28;20597;-81
2023/08/17 07:36:31;;;;;;;4.22;3.03;;;;;;;25.64;63.79;95765.84;5039247;28;20237;-81
2023/08/17 07:38:56;;;;;;;3.55;3.22;;;;;;;26.02;60.91;95764.44;5021245;28;20214;-82
2023/08/17 07:41:21;;;;;;;3.45;3.10;;;;;;;25.88;61.67;95763.91;5034254;28;20178;-82
2023/08/17 07:43:47;;;;;;;4.80;3.17;;;;;;;25.53;60.74;95766.66;5031112;28;20195;-82
2023/08/17 07:46:12;;;;;;;4.13;3.60;;;;;;;25.27;67.30;95768.03;5030381;28;20304;-82
2023/08/17 07:48:37;;;;;;;3.05;2.72;;;;;;;24.92;66.58;95770.69;5034587;28;20685;-82
2023/08/17 07:51:03;;;;;;;3.97;3.67;;;;;;;25.08;69.21;95773.44;5031658;28;20651;-82
2023/08/17 07:53:28;;;;;;;5.15;4.75;;;;;;;24.60;72.57;95767.56;5039138;28;20197;-82
2023/08/17 07:55:53;;;;;;;7.47;6.88;;;;;;;24.15;74.62;95773.34;5025999;28;20181;-81
2023/08/17 07:58:19;;;;;;;9.60;8.05;;;;;;;24.27;74.49;95777.63;5028123;28;20691;-83
2023/08/17 08:00:44;;;;;;;7.10;6.50;;;;;;;23.57;79.45;95776.53;5034403;28;20582;-81
2023/08/17 08:03:10;;;;;;;6.30;5.80;;;;;;;23.83;79.36;95781.53;5035174;28;20717;-84
2023/08/17 08:05:35;;;;;;;5.55;5.15;;;;;;;23.95;80.45;95782.38;5036579;28;20255;-83
2023/08/17 08:08:00;;;;;;;6.50;5.60;;;;;;;23.78;80.89;95780.59;5034171;28;20267;-83
2023/08/17 08:10:27;;;;;;;6.35;5.78;;;;;;;23.84;80.36;95783.13;5035601;28;20194;-83
2023/08/17 08:12:52;;;;;;;4.95;4.65;;;;;;;24.14;80.63;95774.38;5039117;28;20221;-83
2023/08/17 08:15:18;;;;;;;6.13;5.55;;;;;;;24.63;78.70;95777.69;5033319;28;20449;-82
2023/08/17 08:17:43;;;;;;;6.05;5.65;;;;;;;24.64;75.61;95769.50;5032017;28;20225;-82
2023/08/17 08:20:08;;;;;;;5.65;5.15;;;;;;;25.05;74.52;95767.81;5036006;28;20186;-81
2023/08/17 08:22:34;;;;;;;4.57;4.18;;;;;;;25.30;72.75;95780.84;5035631;28;20201;-78
2023/08/17 08:24:59;;;;;;;5.32;3.85;;;;;;;25.62;70.32;95778.53;5054887;28;20300;-80
2023/08/17 08:27:24;;;;;;;5.57;4.43;;;;;;;25.42;68.19;95771.78;5037181;28;20205;-84
2023/08/17 08:29:50;;;;;;;7.47;6.03;;;;;;;25.76;68.52;95779.91;5036424;28;20200;-83
2023/08/17 08:32:15;;;;;;;5.03;4.13;;;;;;;26.05;69.88;95772.72;5035054;28;20198;-82
2023/08/17 08:34:41;;;;;;;4.63;4.22;;;;;;;26.32;70.02;95780.09;5026474;28;20190;-83
2023/08/17 08:37:06;;;;;;;5.03;4.30;;;;;;;26.37;69.84;95770.38;5034129;28;20206;-82
2023/08/17 08:39:32;;;;;;;4.85;4.45;;;;;;;26.23;69.88;95771.72;5065132;28;20359;-84
2023/08/17 08:41:58;;;;;;;5.47;4.95;;;;;;;25.85;71.49;95772.38;5039274;28;20333;-83
2023/08/17 08:44:23;;;;;;;5.70;4.53;;;;;;;25.57;73.14;95773.94;5034081;28;20186;-83
2023/08/17 08:46:48;;;;;;;4.93;4.53;;;;;;;25.69;71.81;95780.03;5034576;28;20749;-83
2023/08/17 08:49:19;;;;;;;5.13;4.70;;;;;;;25.47;72.87;95771.09;5034638;28;20182;-83
2023/08/17 08:51:49;;;;;;;6.47;4.43;;;;;;;25.45;71.60;95773.19;5035019;28;20209;-82
2023/08/17 08:54:20;;;;;;;4.28;3.92;;;;;;;25.73;68.64;95776.94;5034421;28;20189;-83
2023/08/17 08:56:46;;;;;;;3.75;3.40;;;;;;;26.03;65.32;95774.03;5023766;28;20587;-83
2023/08/17 08:59:11;;;;;;;4.43;3.83;;;;;;;26.31;65.51;95776.63;5053277;28;20236;-83
2023/08/17 09:01:38;;;;;;;4.78;4.13;;;;;;;26.37;62.76;95770.38;5058275;28;20637;-84
2023/08/17 09:04:04;;;;;;;5.13;3.13;;;;;;;26.47;60.42;95770.56;5059925;28;20193;-84
2023/08/17 09:06:30;;;;;;;3.45;3.15;;;;;;;26.73;59.89;95769.09;5065269;28;20198;-84
2023/08/17 09:08:57;;;;;;;3.90;3.45;;;;;;;26.95;59.78;95763.03;5057563;28;20205;-84
2023/08/17 09:11:22;;;;;;;5.68;3.30;;;;;;;27.19;59.73;95764.44;5056664;28;20188;-84
2023/08/17 09:13:48;;;;;;;4.25;3.15;;;;;;;26.91;57.49;95769.88;5060314;28;20221;-84
2023/08/17 09:16:13;;;;;;;3.63;3.28;;;;;;;26.60;58.62;95776.63;5054646;28;20274;-84
2023/08/17 09:18:38;;;;;;;3.97;3.22;;;;;;;26.66;59.17;95773.78;5050099;28;20252;-85
2023/08/17 09:21:03;;;;;;;6.03;3.40;;;;;;;26.83;58.10;95774.56;5057248;28;20263;-85
2023/08/17 09:23:29;;;;;;;6.13;3.70;;;;;;;26.33;60.77;95776.41;5043440;28;20217;-85
2023/08/17 09:25:57;;;;;;;4.97;4.50;;;;;;;26.66;67.17;95779.09;5040578;28;20256;-85
2023/08/17 09:28:23;;;;;;;4.13;3.83;;;;;;;26.76;67.46;95781.91;5042757;28;20676;-84
2023/08/17 09:30:58;;;;;;;4.22;3.92;;;;;;;26.73;67.68;95787.75;5033393;28;20197;-85
2023/08/17 09:33:25;;;;;;;4.82;4.53;;;;;;;26.31;69.78;95784.63;5042691;28;20188;-85
2023/08/17 09:35:52;;;;;;;4.90;4.50;;;;;;;26.21;70.84;95773.81;5037947;28;20254;-84
2023/08/17 09:38:18;;;;;;;5.00;4.57;;;;;;;26.04;70.16;95771.13;5026918;28;20210;-85
2023/08/17 09:40:43;;;;;;;4.78;4.38;;;;;;;26.14;71.46;95765.97;5042770;28;20194;-84
2023/08/17 09:43:09;;;;;;;4.85;4.45;;;;;;;26.05;70.48;95769.25;5039975;28;20193;-84
2023/08/17 09:45:37;;;;;;;5.47;4.97;;;;;;;26.56;69.53;95770.97;5051755;28;20252;-85
2023/08/17 09:48:03;;;;;;;6.25;5.65;;;;;;;26.64;67.63;95773.22;5040134;28;20205;-84
2023/08/17 09:50:29;;;;;;;5.68;5.18;;;;;;;26.78;68.33;95771.03;5058318;28;20178;-85
2023/08/17 09:52:54;;;;;;;6.43;5.20;;;;;;;26.64;68.47;95767.91;5032648;28;20186;-85
2023/08/17 09:55:23;;;;;;;6.18;5.57;;;;;;;26.07;70.87;95768.00;5040438;28;20197;-85
2023/08/17 09:57:50;;;;;;;6.85;5.63;;;;;;;26.72;67.94;95770.16;5063612;28;20201;-84
2023/08/17 10:00:16;;;;;;;6.63;5.85;;;;;;;26.49;68.63;95772.97;5040929;28;20189;-84
2023/08/17 10:02:43;;;;;;;7.60;7.00;;;;;;;26.34;69.26;95764.72;5053771;28;20174;-84
2023/08/17 10:05:11;;;;;;;6.05;5.55;;;;;;;26.59;67.98;95767.00;5030934;28;20228;-84
2023/08/17 10:07:38;;;;;;;6.30;5.50;;;;;;;26.12;69.19;95762.75;5028821;28;20210;-84
2023/08/17 10:10:05;;;;;;;6.72;5.90;;;;;;;26.14;70.47;95765.16;5043175;28;20182;-83
2023/08/17 10:12:36;;;;;;;6.43;5.65;;;;;;;26.51;68.07;95766.38;5032017;28;20234;-84
2023/08/17 10:15:10;;;;;;;6.68;6.15;;;;;;;26.49;68.93;95767.66;5037051;28;20647;-84
2023/08/17 10:18:15;;;;;;;7.63;5.90;;;;;;;27.23;66.70;95767.44;5050482;28;20849;-83
2023/08/17 10:20:42;;;;;;;6.10;5.50;;;;;;;27.10;66.10;95773.91;5044891;28;20209;-84
2023/08/17 10:23:14;;;;;;;6.03;5.53;;;;;;;27.65;64.10;95765.84;5044529;28;20201;-84
2023/08/17 10:25:41;;;;;;;5.93;5.43;;;;;;;27.43;64.98;95764.22;5042297;28;20189;-84
2023/08/17 10:28:08;;;;;;;5.75;5.30;;;;;;;27.52;65.47;95771.53;5028482;28;20202;-84
2023/08/17 10:30:33;;;;;;;5.60;5.10;;;;;;;28.51;60.89;95767.78;5037121;28;20199;-84
2023/08/17 10:32:59;;;;;;;5.07;4.68;;;;;;;29.06;60.15;95770.03;5020598;28;20277;-84
2023/08/17 10:35:25;;;;;;;5.20;4.80;;;;;;;28.78;59.62;95770.38;5046278;28;20192;-84
2023/08/17 10:37:51;;;;;;;6.72;5.53;;;;;;;28.17;62.02;95772.50;5037396;28;20216;-84
2023/08/17 10:40:16;;;;;;;7.43;6.00;;;;;;;28.41;61.28;95773.84;5035070;28;20186;-84
2023/08/17 10:42:41;;;;;;;8.52;6.13;;;;;;;28.16;61.61;95777.03;5029369;28;20228;-83
2023/08/17 10:45:26;;;;;;;8.55;5.70;;;;;;;27.16;64.69;95772.13;5036494;28;20209;-83
2023/08/17 10:48:19;;;;;;;6.82;5.63;;;;;;;27.50;63.72;95772.84;5028550;28;20228;-83
2023/08/17 10:50:59;;;;;;;6.72;6.03;;;;;;;27.11;64.99;95775.53;5038974;28;20265;-84
2023/08/17 10:53:25;;;;;;;6.55;5.95;;;;;;;27.38;64.04;95770.28;5037673;28;20185;-84
2023/08/17 10:55:57;;;;;;;6.35;5.82;;;;;;;27.62;63.79;95773.50;5040598;28;20182;-84
2023/08/17 10:58:22;;;;;;;6.18;5.45;;;;;;;27.64;63.78;95774.06;5026226;28;20206;-84
2023/08/17 11:00:54;;;;;;;7.25;6.55;;;;;;;27.68;63.80;95777.09;5036614;28;20251;-84
2023/08/17 11:03:20;;;;;;;7.13;6.45;;;;;;;27.78;63.65;95780.66;5033873;28;20191;-84
2023/08/17 11:05:54;;;;;;;7.00;6.30;;;;;;;27.74;63.47;95776.91;5035897;28;20587;-84
2023/08/17 11:08:40;;;;;;;7.55;6.90;;;;;;;27.79;63.91;95779.59;5045147;28;20201;-84
2023/08/17 11:11:09;;;;;;;8.18;6.90;;;;;;;27.46;65.34;95777.84;5025553;28;20182;-83
2023/08/17 11:13:36;;;;;;;7.47;6.88;;;;;;;27.96;63.60;95778.72;5029055;28;20731;-84
2023/08/17 11:16:02;;;;;;;7.78;6.15;;;;;;;28.07;63.57;95772.41;5041688;28;20558;-84
2023/08/17 11:18:28;;;;;;;7.18;6.57;;;;;;;27.95;63.52;95780.59;5048391;28;20209;-83
2023/08/17 11:20:54;;;;;;;8.52;7.00;;;;;;;27.27;65.85;95774.69;5048302;28;20242;-83
2023/08/17 11:23:20;;;;;;;7.53;6.68;;;;;;;27.17;66.85;95777.22;5023765;28;20557;-85
2023/08/17 11:25:45;;;;;;;8.95;7.63;;;;;;;26.62;68.76;95791.31;5034585;28;20186;-84